createdAt,value
2023-02-24T00:02:05.804Z,6.50
2023-02-24T00:04:35.747Z,5.43
2023-02-24T00:07:03.054Z,4.60
2023-02-24T00:09:31.832Z,3.67
2023-02-24T00:12:02.255Z,3.13
2023-02-24T00:14:32.315Z,2.85
2023-02-24T00:16:59.529Z,2.63
2023-02-24T00:19:29.554Z,2.63
2023-02-24T00:21:56.305Z,2.38
2023-02-24T00:24:23.186Z,3.13
2023-02-24T00:26:55.148Z,2.42
2023-02-24T00:29:22.989Z,2.75
2023-02-24T00:32:01.029Z,2.65
2023-02-24T00:34:30.061Z,2.50
2023-02-24T00:36:58.159Z,2.58
2023-02-24T00:39:32.847Z,2.10
2023-02-24T00:42:06.831Z,1.75
2023-02-24T00:44:44.075Z,2.28
2023-02-24T00:47:12.171Z,3.13
2023-02-24T00:49:43.398Z,2.05
2023-02-24T00:52:16.560Z,3.10
2023-02-24T00:54:45.107Z,4.60
2023-02-24T00:57:12.554Z,5.22
2023-02-24T00:59:39.469Z,6.00
2023-02-24T01:02:08.176Z,5.97
2023-02-24T01:04:35.169Z,5.43
2023-02-24T01:07:02.023Z,4.47
2023-02-24T01:09:31.849Z,4.20
2023-02-24T01:12:18.396Z,3.90
2023-02-24T01:14:49.549Z,3.25
2023-02-24T01:17:18.387Z,3.92
2023-02-24T01:19:49.110Z,3.50
2023-02-24T01:22:18.084Z,3.17
2023-02-24T01:24:45.293Z,2.58
2023-02-24T01:27:14.858Z,2.88
2023-02-24T01:29:41.730Z,3.78
2023-02-24T01:32:19.674Z,5.15
2023-02-24T01:34:47.654Z,4.55
2023-02-24T01:37:17.154Z,4.90
2023-02-24T01:39:45.343Z,5.35
2023-02-24T01:42:19.754Z,5.57
2023-02-24T01:44:46.703Z,4.63
2023-02-24T01:47:16.149Z,5.47
2023-02-24T01:49:45.557Z,5.00
2023-02-24T01:52:25.002Z,4.85
2023-02-24T01:55:00.789Z,4.30
2023-02-24T01:57:31.527Z,4.32
2023-02-24T02:00:09.520Z,3.10
2023-02-24T02:02:37.006Z,2.65
2023-02-24T02:05:09.677Z,2.92
2023-02-24T02:07:39.040Z,2.75
2023-02-24T02:10:07.916Z,3.20
2023-02-24T02:12:37.717Z,3.03
2023-02-24T02:15:06.682Z,2.55
2023-02-24T02:18:15.341Z,2.70
2023-02-24T02:20:45.136Z,2.33
2023-02-24T02:23:20.831Z,2.55
2023-02-24T02:26:18.947Z,1.92
2023-02-24T02:29:23.800Z,1.83
2023-02-24T02:32:10.846Z,1.83
2023-02-24T02:34:57.366Z,1.80
2023-02-24T02:37:29.941Z,1.75
2023-02-24T02:40:19.424Z,2.10
2023-02-24T02:42:51.978Z,1.98
2023-02-24T02:45:37.236Z,2.08
2023-02-24T02:48:28.242Z,1.70
2023-02-24T02:51:04.376Z,1.67
2023-02-24T02:54:02.648Z,2.20
2023-02-24T02:56:38.096Z,1.98
2023-02-24T02:59:06.590Z,2.40
2023-02-24T03:01:37.338Z,2.60
2023-02-24T03:04:08.441Z,2.47
2023-02-24T03:06:43.596Z,2.25
2023-02-24T03:09:22.531Z,2.67
2023-02-24T03:11:54.186Z,2.88
2023-02-24T03:14:26.669Z,2.60
2023-02-24T03:16:55.924Z,2.42
2023-02-24T03:19:31.020Z,2.33
2023-02-24T03:22:25.016Z,2.08
2023-02-24T03:24:51.991Z,1.92
2023-02-24T03:27:32.541Z,2.08
2023-02-24T03:30:07.377Z,1.80
2023-02-24T03:33:02.789Z,1.90
2023-02-24T03:35:34.403Z,2.28
2023-02-24T03:38:03.083Z,1.80
2023-02-24T03:40:33.778Z,1.70
2023-02-24T03:43:16.967Z,2.28
2023-02-24T03:45:44.418Z,2.03
2023-02-24T03:48:14.882Z,2.45
2023-02-24T03:50:42.877Z,2.15
2023-02-24T03:53:43.096Z,2.50
2023-02-24T03:56:31.210Z,2.75
2023-02-24T03:59:20.001Z,2.35
2023-02-24T04:01:58.064Z,2.33
2023-02-24T04:04:45.686Z,1.80
2023-02-24T04:07:26.453Z,2.95
2023-02-24T04:10:09.465Z,2.70
2023-02-24T04:12:47.149Z,2.38
2023-02-24T04:15:24.827Z,2.83
2023-02-24T04:17:57.544Z,2.30
2023-02-24T04:20:29.523Z,2.22
2023-02-24T04:23:11.003Z,2.05
2023-02-24T04:25:40.874Z,2.30
2023-02-24T04:28:08.853Z,2.83
2023-02-24T04:30:40.579Z,3.25
2023-02-24T04:33:07.882Z,2.75
2023-02-24T04:35:35.515Z,2.50
2023-02-24T04:38:02.270Z,2.28
2023-02-24T04:40:29.144Z,1.95
2023-02-24T04:42:56.225Z,2.15
2023-02-24T04:45:29.742Z,2.75
2023-02-24T04:48:01.045Z,1.70
2023-02-24T04:50:31.761Z,2.00
2023-02-24T04:53:01.147Z,1.80
2023-02-24T04:55:33.036Z,1.67
2023-02-24T04:58:01.002Z,2.53
2023-02-24T05:00:33.654Z,2.22
2023-02-24T05:03:03.159Z,2.47
2023-02-24T05:05:33.226Z,2.05
2023-02-24T05:08:10.100Z,1.83
2023-02-24T05:10:45.960Z,1.70
2023-02-24T05:13:27.244Z,1.70
2023-02-24T05:15:56.093Z,2.25
2023-02-24T05:18:26.256Z,2.00
2023-02-24T05:21:13.659Z,1.85
2023-02-24T05:23:45.743Z,2.17
2023-02-24T05:26:16.979Z,2.05
2023-02-24T05:28:52.063Z,2.03
2023-02-24T05:31:23.850Z,2.38
2023-02-24T05:33:54.735Z,2.83
2023-02-24T05:36:22.575Z,2.83
2023-02-24T05:38:57.890Z,2.42
2023-02-24T05:41:32.650Z,2.22
2023-02-24T05:44:02.447Z,2.25
2023-02-24T05:46:32.676Z,2.80
2023-02-24T05:49:02.970Z,2.00
2023-02-24T05:51:38.939Z,2.22
2023-02-24T05:54:08.561Z,2.20
2023-02-24T05:56:38.651Z,3.30
2023-02-24T05:59:09.104Z,3.22
2023-02-24T06:01:37.780Z,2.58
2023-02-24T06:04:06.710Z,2.45
2023-02-24T06:06:38.502Z,2.38
2023-02-24T06:09:12.742Z,1.95
2023-02-24T06:11:45.226Z,1.75
2023-02-24T06:14:13.358Z,2.30
2023-02-24T06:16:42.100Z,2.22
2023-02-24T06:19:10.395Z,2.72
2023-02-24T06:21:41.215Z,4.15
2023-02-24T06:24:15.342Z,3.25
2023-02-24T06:26:45.709Z,3.35
2023-02-24T06:29:17.376Z,2.80
2023-02-24T06:31:45.122Z,3.63
2023-02-24T06:34:13.933Z,3.42
2023-02-24T06:36:41.200Z,3.25
2023-02-24T06:39:08.348Z,2.92
2023-02-24T06:41:37.913Z,3.97
2023-02-24T06:44:04.976Z,3.42
2023-02-24T06:46:31.926Z,3.53
2023-02-24T06:48:58.717Z,2.72
2023-02-24T06:51:30.232Z,3.22
2023-02-24T06:53:59.473Z,3.15
2023-02-24T06:56:27.461Z,3.30
2023-02-24T06:58:57.001Z,3.80
2023-02-24T07:01:26.671Z,3.40
2023-02-24T07:04:07.759Z,3.83
2023-02-24T07:06:37.485Z,3.47
2023-02-24T07:09:13.723Z,4.03
2023-02-24T07:11:44.578Z,3.67
2023-02-24T07:14:13.443Z,3.95
2023-02-24T07:16:45.477Z,4.50
2023-02-24T07:19:15.579Z,4.13
2023-02-24T07:21:46.767Z,3.50
2023-02-24T07:24:20.321Z,4.22
2023-02-24T07:26:51.836Z,5.60
2023-02-24T07:29:18.710Z,4.88
2023-02-24T07:31:45.629Z,4.55
2023-02-24T07:34:15.225Z,5.97
2023-02-24T07:36:49.293Z,4.72
2023-02-24T07:39:17.618Z,3.95
2023-02-24T07:41:49.586Z,3.67
2023-02-24T07:44:21.437Z,3.58
2023-02-24T07:46:49.274Z,5.97
2023-02-24T07:49:23.407Z,4.53
2023-02-24T07:51:53.009Z,4.95
2023-02-24T07:54:23.260Z,4.03
2023-02-24T07:56:57.044Z,4.00
2023-02-24T07:59:29.126Z,3.67
2023-02-24T08:01:56.677Z,2.78
2023-02-24T08:04:27.071Z,2.33
2023-02-24T08:06:57.548Z,2.40
2023-02-24T08:09:45.747Z,3.22
2023-02-24T08:12:17.996Z,3.47
2023-02-24T08:14:53.528Z,5.72
2023-02-24T08:17:22.753Z,5.55
2023-02-24T08:20:00.994Z,4.22
2023-02-24T08:22:35.954Z,3.60
2023-02-24T08:25:05.971Z,3.30
2023-02-24T08:27:38.795Z,3.50
2023-02-24T08:30:21.211Z,3.38
2023-02-24T08:32:52.600Z,5.05
2023-02-24T08:35:23.116Z,5.38
2023-02-24T08:37:52.972Z,5.97
2023-02-24T08:40:32.925Z,4.95
2023-02-24T08:43:22.902Z,5.78
2023-02-24T08:45:56.673Z,5.10
2023-02-24T08:48:26.646Z,4.40
2023-02-24T08:50:57.267Z,5.18
2023-02-24T08:53:29.864Z,5.25
2023-02-24T08:55:57.473Z,6.10
2023-02-24T08:58:27.179Z,7.00
2023-02-24T09:00:59.638Z,6.57
2023-02-24T09:03:29.792Z,5.68
2023-02-24T09:06:06.283Z,5.88
2023-02-24T09:08:34.769Z,6.60
2023-02-24T09:11:08.040Z,8.25
2023-02-24T09:13:51.500Z,10.50
2023-02-24T09:16:23.630Z,10.35
2023-02-24T09:19:11.055Z,9.80
2023-02-24T09:21:50.248Z,11.90
2023-02-24T09:24:27.154Z,11.77
2023-02-24T09:27:00.042Z,13.35
2023-02-24T09:29:33.603Z,11.55
2023-02-24T09:32:05.847Z,10.65
2023-02-24T09:34:38.307Z,10.23
2023-02-24T09:37:05.473Z,10.05
2023-02-24T09:40:06.818Z,11.73
2023-02-24T09:42:46.371Z,10.70
2023-02-24T09:45:33.151Z,9.00
2023-02-24T09:48:16.099Z,10.00
2023-02-24T09:51:02.121Z,10.32
2023-02-24T09:53:41.167Z,10.13
2023-02-24T09:56:27.324Z,9.98
2023-02-24T09:59:20.849Z,9.60
2023-02-24T10:01:52.756Z,10.25
2023-02-24T10:04:27.470Z,8.40
2023-02-24T10:07:06.582Z,8.13
2023-02-24T10:09:46.523Z,6.38
2023-02-24T10:12:13.245Z,6.68
2023-02-24T10:15:00.419Z,6.05
2023-02-24T10:17:40.229Z,6.80
2023-02-24T10:20:30.974Z,8.85
2023-02-24T10:23:33.772Z,8.77
2023-02-24T10:26:30.442Z,9.00
2023-02-24T10:29:22.803Z,7.85
2023-02-24T10:31:57.966Z,9.18
2023-02-24T10:34:31.863Z,8.23
2023-02-24T10:37:27.664Z,9.65
2023-02-24T10:40:12.959Z,10.00
2023-02-24T10:42:48.784Z,9.55
2023-02-24T10:45:26.745Z,9.55
2023-02-24T10:47:59.042Z,8.60
2023-02-24T10:50:30.377Z,10.05
2023-02-24T10:53:07.467Z,10.38
2023-02-24T10:55:45.931Z,8.23
2023-02-24T10:58:38.021Z,7.88
2023-02-24T11:01:13.566Z,8.30
2023-02-24T11:04:01.538Z,7.25
2023-02-24T11:06:34.856Z,8.63
2023-02-24T11:09:32.209Z,8.00
2023-02-24T11:12:19.050Z,8.00
2023-02-24T11:15:12.656Z,8.05
2023-02-24T11:18:06.860Z,7.95
2023-02-24T11:20:50.255Z,7.40
2023-02-24T11:23:27.861Z,7.28
2023-02-24T11:26:11.796Z,6.70
2023-02-24T11:28:50.302Z,6.68
2023-02-24T11:31:28.810Z,6.20
2023-02-24T11:34:16.111Z,6.47
2023-02-24T11:37:20.688Z,7.15
2023-02-24T11:40:03.491Z,7.55
2023-02-24T11:42:46.305Z,6.55
2023-02-24T11:45:44.507Z,6.80
2023-02-24T11:48:15.948Z,6.07
2023-02-24T11:50:53.820Z,5.60
2023-02-24T11:53:31.763Z,4.65
2023-02-24T11:56:29.311Z,4.97
2023-02-24T11:59:19.705Z,5.57
2023-02-24T12:02:10.656Z,5.45
2023-02-24T12:04:42.928Z,4.28
2023-02-24T12:07:36.305Z,4.88
2023-02-24T12:10:17.835Z,4.88
2023-02-24T12:13:05.551Z,4.68
2023-02-24T12:15:49.001Z,4.78
2023-02-24T12:18:29.897Z,5.97
2023-02-24T12:21:00.097Z,4.65
2023-02-24T12:23:34.064Z,5.00
2023-02-24T12:26:15.927Z,3.78
2023-02-24T12:29:03.059Z,4.13
2023-02-24T12:31:53.530Z,4.03
2023-02-24T12:34:43.494Z,4.00
2023-02-24T12:37:27.844Z,3.83
2023-02-24T12:40:13.403Z,3.90
2023-02-24T12:42:55.859Z,4.20
2023-02-24T12:45:27.699Z,3.60
2023-02-24T12:48:13.548Z,3.70
2023-02-24T12:50:43.742Z,3.95
2023-02-24T12:53:29.207Z,3.35
2023-02-24T12:56:02.273Z,3.55
2023-02-24T12:58:31.689Z,3.60
2023-02-24T13:01:07.986Z,4.07
2023-02-24T13:03:54.253Z,4.00
2023-02-24T13:06:27.534Z,3.35
2023-02-24T13:08:54.701Z,2.92
2023-02-24T13:11:25.312Z,3.25
2023-02-24T13:14:13.430Z,3.25
2023-02-24T13:16:41.689Z,2.38
2023-02-24T13:19:18.979Z,2.78
2023-02-24T13:21:56.572Z,3.13
2023-02-24T13:24:26.359Z,3.33
2023-02-24T13:26:53.712Z,3.20
2023-02-24T13:29:21.038Z,3.17
2023-02-24T13:31:49.568Z,2.92
2023-02-24T13:34:30.793Z,3.17
2023-02-24T13:36:58.279Z,3.30
2023-02-24T13:39:36.145Z,3.55
2023-02-24T13:42:18.797Z,2.97
2023-02-24T13:44:50.722Z,2.38
2023-02-24T13:47:20.689Z,3.70
2023-02-24T13:50:00.632Z,3.45
2023-02-24T13:52:46.649Z,4.30
2023-02-24T13:55:37.245Z,3.63
2023-02-24T13:58:04.522Z,4.47
2023-02-24T14:00:32.608Z,4.10
2023-02-24T14:03:00.824Z,4.82
2023-02-24T14:05:34.637Z,4.20
2023-02-24T14:08:02.469Z,4.25
2023-02-24T14:10:31.246Z,4.43
2023-02-24T14:13:04.082Z,4.85
2023-02-24T14:15:31.978Z,5.07
2023-02-24T14:18:03.342Z,4.60
2023-02-24T14:20:35.177Z,5.15
2023-02-24T14:23:04.000Z,4.30
2023-02-24T14:25:35.357Z,5.22
2023-02-24T14:28:02.652Z,4.45
2023-02-24T14:30:37.463Z,4.20
2023-02-24T14:33:05.920Z,3.92
2023-02-24T14:35:35.046Z,3.75
2023-02-24T14:38:02.424Z,3.45
2023-02-24T14:40:30.135Z,3.70
2023-02-24T14:42:57.768Z,3.83
2023-02-24T14:45:27.458Z,3.25
2023-02-24T14:47:55.861Z,3.47
2023-02-24T14:50:36.505Z,3.17
2023-02-24T14:53:11.401Z,2.53
2023-02-24T14:55:40.769Z,2.78
2023-02-24T14:58:23.737Z,2.40
2023-02-24T15:00:54.209Z,3.33
2023-02-24T15:03:27.228Z,4.13
2023-02-24T15:05:55.789Z,3.50
2023-02-24T15:08:32.519Z,3.78
2023-02-24T15:11:00.097Z,4.25
2023-02-24T15:13:38.322Z,4.13
2023-02-24T15:16:26.120Z,4.03
2023-02-24T15:18:54.808Z,3.50
2023-02-24T15:21:43.022Z,2.70
2023-02-24T15:24:19.658Z,2.97
2023-02-24T15:27:01.020Z,2.53
2023-02-24T15:29:29.993Z,3.08
2023-02-24T15:31:58.693Z,2.90
2023-02-24T15:34:31.143Z,2.85
2023-02-24T15:37:05.968Z,3.00
2023-02-24T15:39:34.731Z,2.28
2023-02-24T15:42:08.034Z,2.25
2023-02-24T15:44:36.104Z,3.20
2023-02-24T15:47:23.484Z,3.10
2023-02-24T15:49:50.384Z,2.40
2023-02-24T15:52:25.819Z,2.63
2023-02-24T15:54:53.227Z,2.60
2023-02-24T15:57:20.691Z,2.90
2023-02-24T15:59:48.423Z,3.17
2023-02-24T16:02:20.159Z,2.70
2023-02-24T16:04:48.643Z,2.80
2023-02-24T16:07:30.670Z,3.22
2023-02-24T16:09:58.924Z,2.88
2023-02-24T16:12:39.449Z,2.40
2023-02-24T16:15:13.056Z,2.40
2023-02-24T16:17:41.360Z,2.92
2023-02-24T16:20:17.346Z,2.42
2023-02-24T16:22:44.223Z,2.92
2023-02-24T16:25:16.201Z,2.50
2023-02-24T16:27:43.515Z,2.97
2023-02-24T16:30:22.640Z,2.33
2023-02-24T16:32:49.968Z,2.47
2023-02-24T16:35:18.297Z,2.13
2023-02-24T16:37:47.597Z,1.98
2023-02-24T16:40:23.312Z,1.92
2023-02-24T16:42:52.097Z,2.40
2023-02-24T16:45:20.968Z,3.10
2023-02-24T16:47:49.761Z,2.20
2023-02-24T16:50:23.143Z,2.05
2023-02-24T16:52:50.165Z,1.92
2023-02-24T16:55:17.209Z,1.58
2023-02-24T16:57:44.133Z,2.33
2023-02-24T17:00:14.400Z,2.92
2023-02-24T17:02:43.980Z,4.15
2023-02-24T17:05:20.779Z,3.22
2023-02-24T17:07:49.508Z,2.20
2023-02-24T17:10:17.776Z,1.80
2023-02-24T17:12:45.248Z,1.30
2023-02-24T17:15:26.098Z,1.48
2023-02-24T17:17:52.889Z,1.73
2023-02-24T17:20:20.965Z,2.28
2023-02-24T17:22:47.831Z,2.17
2023-02-24T17:25:18.173Z,2.00
2023-02-24T17:27:45.056Z,2.00
2023-02-24T17:30:17.875Z,1.73
2023-02-24T17:32:44.842Z,1.70
2023-02-24T17:35:11.701Z,1.55
2023-02-24T17:37:38.664Z,1.98
2023-02-24T17:40:06.810Z,1.88
2023-02-24T17:42:33.964Z,1.77
2023-02-24T17:45:00.921Z,1.80
2023-02-24T17:47:27.982Z,1.73
2023-02-24T17:49:55.726Z,1.95
2023-02-24T17:52:23.549Z,1.33
2023-02-24T17:54:50.384Z,1.63
2023-02-24T17:57:17.231Z,1.70
2023-02-24T17:59:46.017Z,1.65
2023-02-24T18:02:14.624Z,1.27
2023-02-24T18:04:41.736Z,1.50
2023-02-24T18:07:09.828Z,1.40
2023-02-24T18:09:36.850Z,1.20
2023-02-24T18:12:04.653Z,1.25
2023-02-24T18:14:31.795Z,1.23
2023-02-24T18:16:58.665Z,0.95
2023-02-24T18:19:25.545Z,1.00
2023-02-24T18:21:52.445Z,1.00
2023-02-24T18:24:19.207Z,1.80
2023-02-24T18:26:46.055Z,2.85
2023-02-24T18:29:13.283Z,2.47
2023-02-24T18:31:41.848Z,1.80
2023-02-24T18:34:09.374Z,1.58
2023-02-24T18:36:36.439Z,1.60
2023-02-24T18:39:03.511Z,1.77
2023-02-24T18:41:30.824Z,2.10
2023-02-24T18:43:59.238Z,2.53
2023-02-24T18:46:26.995Z,2.33
2023-02-24T18:48:55.355Z,2.25
2023-02-24T18:51:23.306Z,1.80
2023-02-24T18:53:52.631Z,1.98
2023-02-24T18:56:23.386Z,2.05
2023-02-24T18:58:52.495Z,2.58
2023-02-24T19:01:31.448Z,2.08
2023-02-24T19:03:59.184Z,2.03
2023-02-24T19:06:27.501Z,2.08
2023-02-24T19:09:10.433Z,1.40
2023-02-24T19:11:39.372Z,1.80
2023-02-24T19:14:06.781Z,1.60
2023-02-24T19:16:34.570Z,2.00
2023-02-24T19:19:02.109Z,2.38
2023-02-24T19:21:31.235Z,1.50
2023-02-24T19:24:08.183Z,1.42
2023-02-24T19:26:35.479Z,1.98
2023-02-24T19:29:03.954Z,1.73
2023-02-24T19:31:32.576Z,1.33
2023-02-24T19:34:07.048Z,1.23
2023-02-24T19:36:36.184Z,1.35
2023-02-24T19:39:03.941Z,1.45
2023-02-24T19:41:31.041Z,1.30
2023-02-24T19:43:57.934Z,1.90
2023-02-24T19:46:25.293Z,1.70
2023-02-24T19:48:52.425Z,1.85
2023-02-24T19:51:22.673Z,1.60
2023-02-24T19:53:53.390Z,1.60
2023-02-24T19:56:26.008Z,1.50
2023-02-24T19:58:54.574Z,1.55
2023-02-24T20:01:22.744Z,1.60
2023-02-24T20:03:50.510Z,1.75
2023-02-24T20:06:26.412Z,1.70
2023-02-24T20:08:54.392Z,2.40
2023-02-24T20:11:21.789Z,1.83
2023-02-24T20:13:50.998Z,2.00
2023-02-24T20:16:19.439Z,2.17
2023-02-24T20:18:46.719Z,1.73
2023-02-24T20:21:14.195Z,1.90
2023-02-24T20:23:41.453Z,1.92
2023-02-24T20:26:11.148Z,1.60
2023-02-24T20:28:38.003Z,1.85
2023-02-24T20:31:13.183Z,1.88
2023-02-24T20:33:41.010Z,1.98
2023-02-24T20:36:10.111Z,2.10
2023-02-24T20:38:37.984Z,2.35
2023-02-24T20:41:05.594Z,2.83
2023-02-24T20:43:33.264Z,2.45
2023-02-24T20:46:00.566Z,2.50
2023-02-24T20:48:27.404Z,2.50
2023-02-24T20:50:54.245Z,3.15
2023-02-24T20:53:21.154Z,2.58
2023-02-24T20:55:48.181Z,2.33
2023-02-24T20:58:14.983Z,2.15
2023-02-24T21:00:41.886Z,3.33
2023-02-24T21:03:12.150Z,3.20
2023-02-24T21:05:39.705Z,3.60
2023-02-24T21:08:06.851Z,2.28
2023-02-24T21:10:33.688Z,2.78
2023-02-24T21:13:00.507Z,2.47
2023-02-24T21:15:27.409Z,2.00
2023-02-24T21:17:54.406Z,1.95
2023-02-24T21:20:21.292Z,2.10
2023-02-24T21:22:48.385Z,3.13
2023-02-24T21:25:15.199Z,2.70
2023-02-24T21:27:42.036Z,2.88
2023-02-24T21:30:09.630Z,2.42
2023-02-24T21:32:36.747Z,2.08
2023-02-24T21:35:04.512Z,2.03
2023-02-24T21:37:32.889Z,2.45
2023-02-24T21:40:01.125Z,2.08
2023-02-24T21:42:28.710Z,2.00
2023-02-24T21:45:02.317Z,2.25
2023-02-24T21:47:31.293Z,2.30
2023-02-24T21:49:58.116Z,1.70
2023-02-24T21:52:24.974Z,1.50
2023-02-24T21:54:52.999Z,1.98
2023-02-24T21:57:19.862Z,2.20
2023-02-24T21:59:46.663Z,2.15
2023-02-24T22:02:16.911Z,1.60
2023-02-24T22:04:44.759Z,1.70
2023-02-24T22:07:12.126Z,1.60
2023-02-24T22:09:39.034Z,1.40
2023-02-24T22:12:06.868Z,1.55
2023-02-24T22:14:33.720Z,1.35
2023-02-24T22:17:00.567Z,1.35
2023-02-24T22:19:27.561Z,1.70
2023-02-24T22:21:57.730Z,1.85
2023-02-24T22:24:24.495Z,1.80
2023-02-24T22:26:51.281Z,1.67
2023-02-24T22:29:18.103Z,1.90
2023-02-24T22:31:47.584Z,2.28
2023-02-24T22:34:15.974Z,1.65
2023-02-24T22:36:43.403Z,1.30
2023-02-24T22:39:10.354Z,1.65
2023-02-24T22:41:37.722Z,1.45
2023-02-24T22:44:06.249Z,1.60
2023-02-24T22:46:37.950Z,1.40
2023-02-24T22:49:05.802Z,1.42
2023-02-24T22:51:32.737Z,1.17
2023-02-24T22:53:59.602Z,1.25
2023-02-24T22:56:28.999Z,1.17
2023-02-24T22:58:56.490Z,1.30
2023-02-24T23:01:36.883Z,0.88
2023-02-24T23:04:06.956Z,0.95
2023-02-24T23:06:34.904Z,0.88
2023-02-24T23:09:02.413Z,0.90
2023-02-24T23:11:31.835Z,0.63
2023-02-24T23:14:01.694Z,0.80
2023-02-24T23:16:31.807Z,0.70
2023-02-24T23:19:00.943Z,0.85
2023-02-24T23:21:33.892Z,0.90
2023-02-24T23:24:01.018Z,0.90
2023-02-24T23:26:32.349Z,0.60
2023-02-24T23:28:59.635Z,0.75
2023-02-24T23:31:27.202Z,0.50
2023-02-24T23:33:54.995Z,0.50
2023-02-24T23:36:23.604Z,0.50
2023-02-24T23:38:50.982Z,0.70
2023-02-24T23:41:17.818Z,0.60
2023-02-24T23:43:44.622Z,0.60
2023-02-24T23:46:12.890Z,0.70
2023-02-24T23:48:39.904Z,0.70
2023-02-24T23:51:12.364Z,1.10
2023-02-24T23:53:44.260Z,0.93
2023-02-24T23:56:13.688Z,1.30
2023-02-24T23:58:40.864Z,1.10
